Kykotsmovi, Arizona
Current Conditions -  °F | °C
As of 10:56 PM on Monday 26 Jan 2015 (Local Time) from KINW Reporting Station
Overcast Overcast  
Wind Chill: 39°   Ceiling: 9500
Heat Index: 39°   Visibility: 10mi
Dew Point: 31°   Wind: 0mph
Humidity: 73%   Direction: NA
Pressure: 30.28"   Gusts: NA
Location:  35.8773°N, 110.619°W
Report Text: KINW 270556Z AUTO 00000KT 10SM OVC095 04/M01 A3028 RMK AO2 SLP250 T00391006 10117 20028 53005
Loading
Personal Weather Stations






























Interactive Weather Map New forecast layout! Learn more

10-Day Weather Forecast

Advertisements
Track Severe Weather on mobile